Have a Safe July 4th! 

Flight Track Log - Related Links

Times and Time Zones

All times are in EDT time to prevent confusion due to time zone crossing. See the EGF4393 flight status page for this flight to view local times or setup timezone preferences in your user account.

Time Position Orientation Groundspeed Altitude Reporting Facility
EDT Latitude Longitude Course Direction KTS MPH feet Rate Location/Type
Sun 03:44:37 PM 41.9167 -87.8833 324° Northwest 182 209 2,600  Level Chicago TRACON
Sun 03:45:37 PM 41.9667 -87.8500 26° Northeast 264 304 4,200 2,250 Climbing Chicago TRACON
Sun 03:46:00 PM 42.2410 -87.9894 350° North  Level FlightAware Approximate
Sun 03:46:37 PM 42.0500 -87.8500 360° North 274 315 7,100  Level Chicago TRACON
Sun 03:47:00 PM 42.3340 -88.0127 350° North  Level FlightAware Approximate
Sun 03:47:32 PM 42.1167 -87.8667 349° North 270 311 9,500  Level Chicago TRACON
Sun 03:48:00 PM 42.4239 -88.0515 352° North  Level FlightAware Approximate
Sun 03:48:11 PM 42.1475 -87.8525 19° North 279 321 10,500  Level Chicago Center
Sun 03:49:00 PM 42.5143 -88.0809 324° Northwest  Level FlightAware Approximate
Sun 03:49:15 PM 42.2264 -87.8253 14° North 295 339 12,300  Level Chicago Center
Sun 03:50:15 PM 42.3119 -87.8264 359° North 307 353 14,400 1,770 Climbing Chicago Center
Sun 03:51:17 PM 42.4014 -87.8611 344° North 316 364 15,900 1,210 Climbing Chicago Center
Sun 03:52:19 PM 42.4881 -87.9139 336° Northwest 336 387 16,900 871 Climbing Chicago Center
Sun 03:53:21 PM 42.5964 -87.9769 337° Northwest 358 412 17,700 532 Climbing Chicago Center
Sun 03:54:23 PM 42.6906 -88.0428 333° Northwest 378 435 18,000 145 Climbing Chicago Center
Sun 03:55:25 PM 42.7872 -88.1172 331° Northwest 393 452 18,000  Level Chicago Center
Sun 03:56:27 PM 42.8853 -88.1897 332° Northwest 399 459 18,000  Level Chicago Center
Sun 03:57:29 PM 42.9819 -88.2619 331° Northwest 397 457 18,000  Level Chicago Center
Sun 03:58:31 PM 43.0783 -88.3339 331° Northwest 393 452 18,000  Level Chicago Center
Sun 03:59:33 PM 43.1903 -88.4192 331° Northwest 393 452 18,000  Level Chicago Center
Sun 04:00:35 PM 43.2864 -88.4931 331° Northwest 394 453 18,000  Level Chicago Center
Sun 04:01:37 PM 43.3833 -88.5697 330° Northwest 394 453 18,000  Level Chicago Center
Sun 04:02:39 PM 43.4839 -88.6458 331° Northwest 398 458 18,000  Level Chicago Center
Sun 04:03:41 PM 43.5808 -88.7203 331° Northwest 396 456 18,000  Level Chicago Center
Sun 04:04:43 PM 43.6769 -88.7944 331° Northwest 394 453 18,000  Level Chicago Center
Sun 04:05:49 PM 43.7878 -88.8811 331° Northwest 394 453 18,000  Level Minneapolis Center
Sun 04:06:50 PM 43.8833 -88.9547 331° Northwest 391 450 18,000 -634 Level Minneapolis Center
Sun 04:07:52 PM 43.9764 -89.0269 331° Northwest 385 443 16,700 -1,200 Descending Minneapolis Center
Sun 04:09:05 PM 44.0700 -89.1017 330° Northwest 359 413 15,300 -1,200 Descending Minneapolis Center
Sun 04:10:07 PM 44.1747 -89.1844 330° Northwest 360 414 14,000 -629 Descending Minneapolis Center
Sun 04:11:09 PM 44.2475 -89.2744 318° Northwest 340 391 14,000  Level Minneapolis Center
Sun 04:12:10 PM 44.3058 -89.3578 314° West 317 365 14,000  Level Minneapolis Center
Sun 04:13:12 PM 44.3697 -89.4517 314° West 319 367 14,000 -780 Level Minneapolis Center
Sun 04:14:13 PM 44.4267 -89.5314 315° West 277 319 12,400 -2,049 Descending Minneapolis Center
Sun 04:15:15 PM 44.4803 -89.6086 314° West 266 306 9,800 -2,468 Descending Minneapolis Center
Sun 04:16:17 PM 44.5200 -89.6922 304° West 247 284 7,300 -2,244 Descending Minneapolis Center
Sun 04:17:18 PM 44.5578 -89.7656 306° West 243 280 5,200 -1,122 Descending Minneapolis Center
Sun 04:18:20 PM 44.6003 -89.8508 305° West 254 292 5,000 -97 Descending Minneapolis Center
Sun 04:19:22 PM 44.6342 -89.9406 298° West 251 289 5,000  Level Minneapolis Center
Sun 04:20:23 PM 44.6669 -90.0283 298° West 243 280 5,000 -244 Level Minneapolis Center
Sun 04:21:25 PM 44.6967 -90.1006 300° West 213 245 4,500 -435 Descending Minneapolis Center
Sun 04:22:27 PM 44.7419 -90.1528 321° Northwest 244 281 4,100 -677 Descending Minneapolis Center
Sun 04:23:29 PM 44.7514 -90.0786 80° East 200 230 3,100 -968 Descending Minneapolis Center

Login

Don't have an account? Register now (free) for customized features, flight alerts, and more!